createdAt,value
2018-03-27T00:01:39.280Z,12.20
2018-03-27T00:04:14.362Z,12.20
2018-03-27T00:06:49.283Z,12.20
2018-03-27T00:09:24.127Z,12.20
2018-03-27T00:11:59.218Z,12.20
2018-03-27T00:14:35.105Z,12.20
2018-03-27T00:17:10.769Z,12.20
2018-03-27T00:19:47.273Z,12.20
2018-03-27T00:22:23.309Z,12.20
2018-03-27T00:24:58.489Z,12.10
2018-03-27T00:27:46.210Z,12.20
2018-03-27T00:30:38.785Z,12.20
2018-03-27T00:33:31.498Z,12.10
2018-03-27T00:36:24.253Z,12.10
2018-03-27T00:39:16.910Z,12.10
2018-03-27T00:44:57.596Z,12.10
2018-03-27T00:47:33.136Z,12.00
2018-03-27T00:50:08.277Z,12.00
2018-03-27T00:52:44.439Z,12.00
2018-03-27T00:55:20.120Z,11.90
2018-03-27T00:57:55.719Z,11.90
2018-03-27T01:00:30.589Z,11.90
2018-03-27T01:03:06.281Z,11.90
2018-03-27T01:05:41.731Z,11.90
2018-03-27T01:08:17.002Z,11.90
2018-03-27T01:10:51.841Z,11.80
2018-03-27T01:13:27.903Z,11.80
2018-03-27T01:16:03.931Z,11.80
2018-03-27T01:18:40.495Z,11.80
2018-03-27T01:21:15.967Z,11.80
2018-03-27T01:23:51.538Z,11.80
2018-03-27T01:26:26.752Z,11.70
2018-03-27T01:29:01.922Z,11.70
2018-03-27T01:31:37.461Z,11.70
2018-03-27T01:34:12.464Z,11.70
2018-03-27T01:36:47.304Z,11.70
2018-03-27T01:39:22.476Z,11.70
2018-03-27T01:41:57.678Z,11.70
2018-03-27T01:44:32.922Z,11.60
2018-03-27T01:47:08.184Z,11.60
2018-03-27T01:49:43.558Z,11.70
2018-03-27T01:52:19.868Z,11.70
2018-03-27T01:54:54.902Z,11.70
2018-03-27T01:57:29.732Z,11.70
2018-03-27T02:00:04.973Z,11.60
2018-03-27T02:02:40.624Z,11.60
2018-03-27T02:05:16.178Z,11.50
2018-03-27T02:07:52.024Z,11.50
2018-03-27T02:10:27.267Z,11.40
2018-03-27T02:13:07.829Z,11.40
2018-03-27T02:15:48.803Z,11.40
2018-03-27T02:18:29.981Z,11.50
2018-03-27T02:21:10.649Z,11.50
2018-03-27T02:23:45.890Z,11.50
2018-03-27T02:26:21.230Z,11.40
2018-03-27T02:28:56.367Z,11.40
2018-03-27T02:31:31.612Z,11.50
2018-03-27T02:34:06.945Z,11.40
2018-03-27T02:36:41.696Z,11.40
2018-03-27T02:39:17.124Z,11.40
2018-03-27T02:41:52.571Z,11.40
2018-03-27T02:44:27.808Z,11.30
2018-03-27T02:47:02.987Z,11.30
2018-03-27T02:49:38.084Z,11.30
2018-03-27T02:52:13.124Z,11.30
2018-03-27T02:54:48.064Z,11.30
2018-03-27T02:57:23.702Z,11.30
2018-03-27T02:59:59.043Z,11.30
2018-03-27T03:02:33.878Z,11.30
2018-03-27T03:05:08.908Z,11.30
2018-03-27T03:07:45.171Z,11.30
2018-03-27T03:10:20.823Z,11.30
2018-03-27T03:12:56.370Z,11.30
2018-03-27T03:15:32.221Z,11.30
2018-03-27T03:18:07.773Z,11.40
2018-03-27T03:20:42.803Z,11.40
2018-03-27T03:23:18.593Z,11.40
2018-03-27T03:25:54.107Z,11.50
2018-03-27T03:28:29.186Z,11.50
2018-03-27T03:31:05.343Z,11.50
2018-03-27T03:33:40.948Z,11.50
2018-03-27T03:36:15.780Z,11.50
2018-03-27T03:38:50.816Z,11.50
2018-03-27T03:41:25.619Z,11.50
2018-03-27T03:44:00.988Z,11.40
2018-03-27T03:46:36.231Z,10.90
2018-03-27T03:49:12.199Z,11.40
2018-03-27T03:51:47.631Z,11.40
2018-03-27T03:54:22.768Z,11.30
2018-03-27T03:56:58.557Z,11.30
2018-03-27T03:59:35.704Z,11.30
2018-03-27T04:02:10.812Z,11.30
2018-03-27T04:04:46.218Z,11.20
2018-03-27T04:07:21.217Z,11.20
2018-03-27T04:09:56.869Z,11.20
2018-03-27T04:12:31.856Z,11.20
2018-03-27T04:15:07.653Z,11.20
2018-03-27T04:17:42.902Z,11.20
2018-03-27T04:20:18.750Z,11.10
2018-03-27T04:22:53.990Z,11.20
2018-03-27T04:25:29.465Z,11.10
2018-03-27T04:28:04.407Z,11.10
2018-03-27T04:30:39.300Z,11.20
2018-03-27T04:33:15.663Z,11.10
2018-03-27T04:35:51.111Z,11.10
2018-03-27T04:38:25.838Z,11.10
2018-03-27T04:41:01.139Z,11.10
2018-03-27T04:43:36.194Z,11.10
2018-03-27T04:46:11.123Z,11.20
2018-03-27T04:48:45.899Z,11.20
2018-03-27T04:51:20.899Z,11.10
2018-03-27T04:53:56.560Z,11.00
2018-03-27T04:56:31.806Z,11.00
2018-03-27T04:59:06.472Z,11.00
2018-03-27T05:01:41.355Z,11.00
2018-03-27T05:04:16.097Z,11.00
2018-03-27T05:06:51.673Z,11.00
2018-03-27T05:09:27.175Z,10.90
2018-03-27T05:12:02.305Z,10.90
2018-03-27T05:14:37.661Z,10.90
2018-03-27T05:17:12.947Z,10.90
2018-03-27T05:19:48.265Z,10.90
2018-03-27T05:22:23.214Z,11.00
2018-03-27T05:24:58.942Z,10.90
2018-03-27T05:27:34.578Z,10.80
2018-03-27T05:30:11.565Z,10.80
2018-03-27T05:32:47.653Z,10.70
2018-03-27T05:35:23.603Z,10.70
2018-03-27T05:37:58.451Z,10.60
2018-03-27T05:40:34.058Z,10.60
2018-03-27T05:43:09.295Z,10.60
2018-03-27T05:45:44.902Z,10.50
2018-03-27T05:48:20.234Z,10.50
2018-03-27T05:50:55.297Z,10.50
2018-03-27T05:53:30.519Z,10.40
2018-03-27T05:56:05.577Z,10.40
2018-03-27T05:58:40.805Z,10.40
2018-03-27T06:01:16.727Z,10.50
2018-03-27T06:03:51.409Z,10.40
2018-03-27T06:06:26.912Z,10.50
2018-03-27T06:09:02.460Z,10.60
2018-03-27T06:11:37.343Z,10.50
2018-03-27T06:14:12.661Z,10.60
2018-03-27T06:16:47.616Z,10.70
2018-03-27T06:19:22.654Z,10.70
2018-03-27T06:21:57.685Z,10.80
2018-03-27T06:24:33.868Z,10.70
2018-03-27T06:27:09.536Z,10.70
2018-03-27T06:29:44.536Z,10.70
2018-03-27T06:32:19.260Z,10.80
2018-03-27T06:34:54.549Z,10.80
2018-03-27T06:37:30.149Z,10.80
2018-03-27T06:40:05.259Z,10.80
2018-03-27T06:42:40.281Z,10.80
2018-03-27T06:45:15.359Z,10.80
2018-03-27T06:47:50.207Z,10.90
2018-03-27T06:50:25.970Z,11.10
2018-03-27T06:53:00.973Z,11.10
2018-03-27T06:55:36.008Z,11.20
2018-03-27T06:58:11.349Z,11.20
2018-03-27T07:00:47.038Z,11.20
2018-03-27T07:03:22.595Z,11.30
2018-03-27T07:05:57.532Z,11.40
2018-03-27T07:08:32.793Z,11.50
2018-03-27T07:11:08.059Z,11.60
2018-03-27T07:13:43.081Z,12.00
2018-03-27T07:16:18.975Z,12.70
2018-03-27T07:18:54.714Z,14.20
2018-03-27T07:21:29.732Z,15.50
2018-03-27T07:24:04.690Z,16.40
2018-03-27T07:26:41.069Z,17.20
2018-03-27T07:29:17.478Z,17.10
2018-03-27T07:31:53.464Z,17.30
2018-03-27T07:34:29.531Z,17.30
2018-03-27T07:37:06.076Z,18.00
2018-03-27T07:39:40.927Z,18.00
2018-03-27T07:42:16.164Z,17.30
2018-03-27T07:44:51.404Z,16.30
2018-03-27T07:47:26.845Z,15.20
2018-03-27T07:50:02.497Z,14.90
2018-03-27T07:52:37.546Z,14.90
2018-03-27T07:55:12.361Z,15.70
2018-03-27T07:57:48.634Z,15.10
2018-03-27T08:00:24.484Z,14.70
2018-03-27T08:02:59.310Z,14.10
2018-03-27T08:05:34.015Z,13.50
2018-03-27T08:08:08.867Z,14.50
2018-03-27T08:10:43.836Z,14.90
2018-03-27T08:13:18.765Z,15.60
2018-03-27T08:15:54.281Z,16.90
2018-03-27T08:18:29.458Z,17.70
2018-03-27T08:21:04.422Z,18.30
2018-03-27T08:23:39.636Z,19.00
2018-03-27T08:26:14.658Z,19.90
2018-03-27T08:28:49.972Z,20.60
2018-03-27T08:31:25.208Z,20.50
2018-03-27T08:34:01.408Z,18.80
2018-03-27T08:36:36.509Z,18.70
2018-03-27T08:39:12.112Z,17.70
2018-03-27T08:41:47.121Z,17.00
2018-03-27T08:44:22.537Z,16.80
2018-03-27T08:46:57.978Z,16.30
2018-03-27T08:49:33.422Z,16.30
2018-03-27T08:52:09.791Z,16.10
2018-03-27T08:54:45.372Z,16.10
2018-03-27T08:57:21.144Z,16.20
2018-03-27T08:59:56.432Z,16.10
2018-03-27T09:02:32.030Z,15.30
2018-03-27T09:05:07.425Z,14.90
2018-03-27T09:07:42.474Z,14.40
2018-03-27T09:10:17.688Z,13.90
2018-03-27T09:12:52.530Z,13.90
2018-03-27T09:15:27.771Z,14.20
2018-03-27T09:18:02.600Z,14.40
2018-03-27T09:20:37.840Z,14.50
2018-03-27T09:23:12.552Z,14.40
2018-03-27T09:25:48.001Z,14.30
2018-03-27T09:28:23.236Z,14.20
2018-03-27T09:30:58.472Z,14.30
2018-03-27T09:33:33.838Z,14.30
2018-03-27T09:36:09.382Z,14.30
2018-03-27T09:38:44.214Z,14.40
2018-03-27T09:41:20.270Z,14.60
2018-03-27T09:43:55.106Z,14.60
2018-03-27T09:46:30.508Z,14.80
2018-03-27T09:49:05.481Z,14.80
2018-03-27T09:51:40.718Z,14.80
2018-03-27T09:54:15.779Z,14.70
2018-03-27T09:56:50.891Z,14.70
2018-03-27T09:59:25.933Z,15.00
2018-03-27T10:02:00.964Z,15.40
2018-03-27T10:04:36.203Z,15.80
2018-03-27T10:07:12.262Z,15.80
2018-03-27T10:09:47.914Z,15.90
2018-03-27T10:12:22.942Z,15.70
2018-03-27T10:14:58.798Z,15.60
2018-03-27T10:17:33.838Z,15.60
2018-03-27T10:20:09.074Z,16.20
2018-03-27T10:22:44.930Z,16.50
2018-03-27T10:25:19.966Z,16.80
2018-03-27T10:27:54.912Z,16.60
2018-03-27T10:30:30.648Z,16.40
2018-03-27T10:33:05.492Z,16.40
2018-03-27T10:35:40.309Z,16.40
2018-03-27T10:38:15.546Z,16.70
2018-03-27T10:40:52.014Z,16.80
2018-03-27T10:43:27.460Z,16.80
2018-03-27T10:46:02.261Z,16.90
2018-03-27T10:48:37.632Z,17.20
2018-03-27T10:51:12.934Z,16.60
2018-03-27T10:53:48.049Z,16.40
2018-03-27T10:56:22.882Z,16.40
2018-03-27T10:58:57.992Z,16.60
2018-03-27T11:01:32.809Z,16.80
2018-03-27T11:04:07.640Z,16.80
2018-03-27T11:06:43.702Z,16.60
2018-03-27T11:09:19.555Z,15.90
2018-03-27T11:11:54.589Z,15.90
2018-03-27T11:14:29.883Z,16.20
2018-03-27T11:17:05.377Z,16.30
2018-03-27T11:19:41.025Z,16.20
2018-03-27T11:22:16.264Z,16.30
2018-03-27T11:24:51.717Z,16.10
2018-03-27T11:27:27.154Z,15.60
2018-03-27T11:30:02.808Z,16.00
2018-03-27T11:32:37.838Z,16.30
2018-03-27T11:35:12.973Z,16.50
2018-03-27T11:37:47.804Z,16.50
2018-03-27T11:40:22.839Z,16.30
2018-03-27T11:42:58.023Z,16.20
2018-03-27T11:45:33.729Z,16.40
2018-03-27T11:48:10.052Z,17.30
2018-03-27T11:50:45.369Z,17.20
2018-03-27T11:53:20.485Z,18.60
2018-03-27T11:55:57.145Z,19.90
2018-03-27T11:58:32.391Z,19.30
2018-03-27T12:01:08.286Z,19.30
2018-03-27T12:03:43.076Z,20.20
2018-03-27T12:06:18.622Z,19.70
2018-03-27T12:08:55.086Z,19.90
2018-03-27T12:11:30.841Z,19.80
2018-03-27T12:14:07.101Z,21.40
2018-03-27T12:16:42.751Z,23.10
2018-03-27T12:19:18.746Z,22.10
2018-03-27T12:21:53.745Z,22.10
2018-03-27T12:24:29.153Z,24.00
2018-03-27T12:27:04.226Z,21.40
2018-03-27T12:29:39.570Z,21.50
2018-03-27T12:32:14.600Z,20.60
2018-03-27T12:34:49.640Z,21.00
2018-03-27T12:37:26.340Z,21.00
2018-03-27T12:40:01.489Z,21.20
2018-03-27T12:42:36.998Z,21.50
2018-03-27T12:45:11.838Z,21.20
2018-03-27T12:47:46.919Z,22.00
2018-03-27T12:50:22.578Z,22.40
2018-03-27T12:52:57.645Z,22.30
2018-03-27T12:55:32.488Z,23.40
2018-03-27T12:58:08.330Z,21.80
2018-03-27T13:00:43.163Z,21.20
2018-03-27T13:03:18.196Z,21.40
2018-03-27T13:05:53.342Z,22.30
2018-03-27T13:08:29.042Z,22.00
2018-03-27T13:11:04.026Z,22.50
2018-03-27T13:13:39.449Z,23.40
2018-03-27T13:16:15.554Z,23.90
2018-03-27T13:18:52.777Z,23.70
2018-03-27T13:21:28.532Z,23.20
2018-03-27T13:24:04.520Z,23.70
2018-03-27T13:26:40.220Z,23.80
2018-03-27T13:29:15.947Z,24.10
2018-03-27T13:31:51.143Z,23.60
2018-03-27T13:34:26.917Z,23.90
2018-03-27T13:37:02.357Z,24.20
2018-03-27T13:39:38.008Z,24.50
2018-03-27T13:42:13.463Z,24.20
2018-03-27T13:44:48.504Z,22.60
2018-03-27T13:47:24.300Z,22.40
2018-03-27T13:50:00.167Z,21.00
2018-03-27T13:52:35.745Z,19.70
2018-03-27T13:55:11.188Z,19.30
2018-03-27T13:57:47.039Z,19.40
2018-03-27T14:00:21.907Z,19.50
2018-03-27T14:02:57.928Z,18.70
2018-03-27T14:05:33.173Z,18.70
2018-03-27T14:08:08.818Z,17.90
2018-03-27T14:10:44.058Z,17.70
2018-03-27T14:13:19.196Z,18.00
2018-03-27T14:15:54.537Z,17.80
2018-03-27T14:18:29.470Z,17.20
2018-03-27T14:21:04.607Z,17.10
2018-03-27T14:23:39.651Z,16.70
2018-03-27T14:26:15.808Z,16.70
2018-03-27T14:31:33.656Z,16.40
2018-03-27T14:34:08.849Z,16.40
2018-03-27T14:36:43.834Z,16.80
2018-03-27T14:39:19.069Z,16.60
2018-03-27T14:41:54.160Z,16.20
2018-03-27T14:44:29.299Z,16.30
2018-03-27T14:47:04.993Z,16.70
2018-03-27T14:49:40.746Z,16.40
2018-03-27T14:52:16.599Z,16.60
2018-03-27T14:54:52.249Z,16.60
2018-03-27T14:57:28.018Z,16.80
2018-03-27T15:00:02.881Z,16.60
2018-03-27T15:02:37.764Z,16.90
2018-03-27T15:05:13.004Z,16.90
2018-03-27T15:07:47.938Z,17.20
2018-03-27T15:10:22.869Z,16.80
2018-03-27T15:12:58.433Z,16.50
2018-03-27T15:15:33.218Z,16.10
2018-03-27T15:18:08.288Z,16.10
2018-03-27T15:20:43.119Z,15.90
2018-03-27T15:23:18.051Z,16.20
2018-03-27T15:25:52.778Z,16.20
2018-03-27T15:28:28.015Z,16.40
2018-03-27T15:31:02.850Z,16.10
2018-03-27T15:33:38.113Z,16.30
2018-03-27T15:36:12.915Z,16.40
2018-03-27T15:38:49.118Z,16.50
2018-03-27T15:41:24.316Z,16.50
2018-03-27T15:44:00.127Z,16.50
2018-03-27T15:46:35.944Z,16.40
2018-03-27T15:49:11.576Z,16.40
2018-03-27T15:51:47.016Z,16.70
2018-03-27T15:54:22.671Z,16.50
2018-03-27T15:56:58.315Z,16.30
2018-03-27T15:59:33.698Z,16.20
2018-03-27T16:02:08.950Z,16.20
2018-03-27T16:04:44.238Z,16.50
2018-03-27T16:07:19.690Z,16.50
2018-03-27T16:09:55.337Z,16.40
2018-03-27T16:12:30.407Z,16.20
2018-03-27T16:15:05.618Z,16.10
2018-03-27T16:17:40.847Z,16.00
2018-03-27T16:20:15.989Z,16.20
2018-03-27T16:22:51.533Z,16.20
2018-03-27T16:25:27.288Z,16.40
2018-03-27T16:28:03.450Z,16.30
2018-03-27T16:30:39.241Z,16.30
2018-03-27T16:33:14.133Z,16.30
2018-03-27T16:35:49.175Z,16.40
2018-03-27T16:38:25.018Z,16.30
2018-03-27T16:41:01.084Z,16.10
2018-03-27T16:43:36.572Z,16.10
2018-03-27T16:46:13.407Z,15.80
2018-03-27T16:48:49.084Z,16.00
2018-03-27T16:51:24.295Z,16.00
2018-03-27T16:54:00.146Z,16.00
2018-03-27T16:56:35.385Z,15.90
2018-03-27T16:59:10.224Z,15.90
2018-03-27T17:01:46.322Z,15.90
2018-03-27T17:04:22.346Z,15.70
2018-03-27T17:06:57.962Z,15.70
2018-03-27T17:09:34.248Z,15.80
2018-03-27T17:12:09.486Z,15.80
2018-03-27T17:14:44.936Z,15.80
2018-03-27T17:17:20.171Z,15.80
2018-03-27T17:19:55.206Z,15.80
2018-03-27T17:22:31.270Z,15.80
2018-03-27T17:25:06.507Z,15.80
2018-03-27T17:27:41.950Z,15.80
2018-03-27T17:30:18.113Z,15.90
2018-03-27T17:32:53.047Z,15.80
2018-03-27T17:35:29.518Z,15.80
2018-03-27T17:38:04.753Z,15.80
2018-03-27T17:40:39.584Z,15.80
2018-03-27T17:43:14.623Z,15.80
2018-03-27T17:45:50.214Z,15.80
2018-03-27T17:48:25.398Z,15.80
2018-03-27T17:51:00.394Z,15.80
2018-03-27T17:53:36.749Z,15.90
2018-03-27T17:56:11.852Z,15.80
2018-03-27T17:58:46.885Z,15.70
2018-03-27T18:01:21.915Z,15.70
2018-03-27T18:03:57.166Z,15.70
2018-03-27T18:06:31.984Z,15.70
2018-03-27T18:09:07.380Z,15.70
2018-03-27T18:11:43.077Z,15.70
2018-03-27T18:14:17.908Z,15.70
2018-03-27T18:16:54.135Z,15.70
2018-03-27T18:19:29.113Z,15.70
2018-03-27T18:22:04.342Z,15.60
2018-03-27T18:24:40.009Z,15.70
2018-03-27T18:27:15.447Z,15.70
2018-03-27T18:29:51.095Z,15.70
2018-03-27T18:32:26.639Z,15.70
2018-03-27T18:35:02.641Z,15.80
2018-03-27T18:37:38.556Z,15.80
2018-03-27T18:40:14.722Z,15.80
2018-03-27T18:42:49.852Z,15.80
2018-03-27T18:45:24.672Z,15.70
2018-03-27T18:47:59.920Z,15.70
2018-03-27T18:50:35.786Z,15.80
2018-03-27T18:53:12.445Z,15.90
2018-03-27T18:55:47.133Z,15.90
2018-03-27T18:58:22.077Z,15.90
2018-03-27T19:00:57.554Z,15.90
2018-03-27T19:03:32.450Z,15.80
2018-03-27T19:06:08.424Z,15.70
2018-03-27T19:08:44.298Z,15.70
2018-03-27T19:11:19.761Z,15.60
2018-03-27T19:13:54.736Z,15.60
2018-03-27T19:16:30.636Z,15.50
2018-03-27T19:19:05.726Z,15.50
2018-03-27T19:21:41.873Z,15.40
2018-03-27T19:24:16.961Z,15.40
2018-03-27T19:26:53.225Z,15.30
2018-03-27T19:29:28.054Z,15.20
2018-03-27T19:32:03.453Z,15.30
2018-03-27T19:34:39.251Z,15.30
2018-03-27T19:37:14.900Z,15.20
2018-03-27T19:39:50.347Z,15.10
2018-03-27T19:42:25.798Z,15.00
2018-03-27T19:45:01.043Z,15.00
2018-03-27T19:47:36.078Z,14.90
2018-03-27T19:50:11.253Z,14.90
2018-03-27T19:52:46.753Z,14.90
2018-03-27T19:55:25.257Z,15.10
2018-03-27T19:58:00.529Z,15.00
2018-03-27T20:00:36.155Z,15.10
2018-03-27T20:03:11.600Z,15.10
2018-03-27T20:05:47.273Z,15.20
2018-03-27T20:08:22.961Z,15.10
2018-03-27T20:10:58.146Z,15.10
2018-03-27T20:13:34.721Z,15.10
2018-03-27T20:16:09.949Z,15.10
2018-03-27T20:18:44.920Z,15.10
2018-03-27T20:21:19.827Z,15.00
2018-03-27T20:23:55.075Z,15.00
2018-03-27T20:26:29.944Z,15.00
2018-03-27T20:29:05.740Z,15.00
2018-03-27T20:31:41.667Z,15.10
2018-03-27T20:34:17.785Z,15.00
2018-03-27T20:36:53.203Z,15.00
2018-03-27T20:39:29.065Z,15.00
2018-03-27T20:42:04.092Z,15.00
2018-03-27T20:44:39.742Z,14.90
2018-03-27T20:47:14.776Z,14.90
2018-03-27T20:49:50.628Z,14.90
2018-03-27T20:52:26.279Z,14.90
2018-03-27T20:55:01.832Z,14.90
2018-03-27T20:57:37.239Z,14.90
2018-03-27T21:00:12.627Z,15.00
2018-03-27T21:02:47.384Z,15.00
2018-03-27T21:05:22.681Z,15.00
2018-03-27T21:07:58.070Z,14.90
2018-03-27T21:10:34.169Z,14.90
2018-03-27T21:13:09.580Z,14.80
2018-03-27T21:15:44.741Z,14.80
2018-03-27T21:18:19.913Z,14.80
2018-03-27T21:20:55.146Z,14.70
2018-03-27T21:23:30.591Z,14.80
2018-03-27T21:26:06.195Z,14.80
2018-03-27T21:28:42.067Z,14.60
2018-03-27T21:31:18.548Z,14.60
2018-03-27T21:33:54.213Z,14.60
2018-03-27T21:36:29.044Z,14.60
2018-03-27T21:39:03.874Z,14.60
2018-03-27T21:41:39.116Z,14.50
2018-03-27T21:44:14.556Z,14.50
2018-03-27T21:46:50.210Z,14.50
2018-03-27T21:49:25.491Z,14.50
2018-03-27T21:52:01.404Z,14.50
2018-03-27T21:54:37.100Z,14.40
2018-03-27T21:57:12.502Z,14.30
2018-03-27T21:59:47.739Z,14.30
2018-03-27T22:02:23.492Z,14.30
2018-03-27T22:04:58.526Z,14.30
2018-03-27T22:07:33.868Z,14.30
2018-03-27T22:10:08.696Z,14.30
2018-03-27T22:12:43.936Z,14.30
2018-03-27T22:15:19.178Z,14.30
2018-03-27T22:17:54.011Z,14.20
2018-03-27T22:20:29.624Z,14.20
2018-03-27T22:23:05.307Z,14.20
2018-03-27T22:25:40.136Z,14.10
2018-03-27T22:28:14.966Z,14.20
2018-03-27T22:30:49.595Z,14.10
2018-03-27T22:33:25.038Z,14.10
2018-03-27T22:35:59.867Z,14.10
2018-03-27T22:38:34.909Z,14.00
2018-03-27T22:41:10.559Z,13.90
2018-03-27T22:43:45.996Z,13.90
2018-03-27T22:46:21.032Z,13.90
2018-03-27T22:48:56.172Z,13.90
2018-03-27T22:51:31.356Z,13.90
2018-03-27T22:54:06.853Z,13.90
2018-03-27T22:56:42.503Z,13.90
2018-03-27T22:59:18.356Z,13.80
2018-03-27T23:01:54.212Z,13.90
2018-03-27T23:04:29.041Z,13.90
2018-03-27T23:07:04.016Z,13.90
2018-03-27T23:09:40.545Z,13.90
2018-03-27T23:12:15.580Z,13.90
2018-03-27T23:14:52.050Z,14.00
2018-03-27T23:17:27.084Z,13.90
2018-03-27T23:20:02.734Z,14.00
2018-03-27T23:22:37.775Z,14.00
2018-03-27T23:25:13.219Z,14.00
2018-03-27T23:27:48.590Z,14.00
2018-03-27T23:30:23.693Z,14.00
2018-03-27T23:32:58.583Z,14.00
2018-03-27T23:35:34.281Z,14.00
2018-03-27T23:38:09.278Z,14.00
2018-03-27T23:40:45.352Z,14.00
2018-03-27T23:43:20.981Z,14.00
2018-03-27T23:45:57.978Z,14.00
2018-03-27T23:48:33.322Z,14.00
2018-03-27T23:51:09.094Z,14.00
2018-03-27T23:53:44.161Z,14.00
2018-03-27T23:56:20.391Z,14.00
2018-03-27T23:58:56.564Z,14.00
